Astrakhan', Russia
Current Conditions -  °F | °C
As of 7:00 AM on Sunday 21 Dec 2014 (Local Time) from URWA Reporting Station
Overcast Overcast  
Wind Chill: 34°   Ceiling: 500
Heat Index: 41°   Visibility: 6mi
Dew Point: 39°   Wind: 11mph
Humidity: 93%   Direction: 220°SW
Pressure: 30.03"   Gusts: NA
Location:  46.35°N, 48.05°E
Report Text: URWA 210400Z 22005MPS 9999 BKN005 OVC120 05/04 Q1017 NOSIG RMKQBB160 OBST OBSC QFE765/1020 SC055
Loading
Personal Weather Stations






























Interactive Weather Map New forecast layout! Learn more

10-Day Weather Forecast

Advertisements
Track Severe Weather on mobile